Time;durP1;ratioP1;P1;durP2;ratioP2;P2;SDS_P1;SDS_P2;PMS_P1;PMS_P2;Temp;Humidity;BMP_temperature;BMP_pressure;BME280_temperature;BME280_humidity;BME280_pressure;Samples;Min_cycle;Max_cycle;Signal;HPM_P1;HPM_P2
2022/08/27 00:00:49;;;;;;;9.32;3.65;;;;;;;14.82;98.46;101522.16;10571391;28;20051;-73
2022/08/27 00:05:51;;;;;;;13.00;3.92;;;;;;;14.75;98.45;101515.03;10538113;28;20050;-76
2022/08/27 00:10:54;;;;;;;7.65;2.90;;;;;;;14.71;98.43;101519.47;10572191;28;20039;-73
2022/08/27 00:15:56;;;;;;;14.73;2.47;;;;;;;14.69;98.13;101521.69;10571580;28;20411;-73
2022/08/27 00:20:59;;;;;;;7.78;3.10;;;;;;;14.71;99.10;101519.47;10573718;28;20048;-73
2022/08/27 00:26:01;;;;;;;10.68;2.97;;;;;;;14.72;99.21;101517.53;10573787;28;20051;-73
2022/08/27 00:31:04;;;;;;;4.18;2.53;;;;;;;14.67;99.50;101510.13;10573104;28;20048;-73
2022/08/27 00:36:07;;;;;;;5.70;2.35;;;;;;;14.68;99.56;101503.47;10571163;28;20047;-74
2022/08/27 00:41:11;;;;;;;3.83;2.30;;;;;;;14.70;100.00;101505.94;10572695;28;20131;-73
2022/08/27 00:46:22;;;;;;;5.63;3.00;;;;;;;14.69;99.70;101507.06;10572850;28;20044;-75
2022/08/27 00:51:25;;;;;;;3.38;2.30;;;;;;;14.65;99.56;101506.81;10571378;28;20207;-75
2022/08/27 00:56:33;;;;;;;4.47;2.17;;;;;;;14.67;99.79;101509.28;10552680;28;20039;-75
2022/08/27 01:02:17;;;;;;;4.95;2.55;;;;;;;14.65;99.51;101506.81;10568760;28;20040;-73
2022/08/27 01:06:59;;;;;;;3.53;1.90;;;;;;;14.65;100.00;101495.78;10570510;28;20036;-76
2022/08/27 01:12:01;;;;;;;2.90;1.85;;;;;;;14.64;100.00;101494.13;10570952;28;20494;-74
2022/08/27 01:17:08;;;;;;;6.45;1.90;;;;;;;14.66;100.00;101483.59;10572064;28;20040;-73
2022/08/27 01:22:12;;;;;;;2.65;2.08;;;;;;;14.70;99.69;101498.50;10555441;28;20044;-73
2022/08/27 01:27:20;;;;;;;5.70;2.70;;;;;;;14.76;100.00;101491.81;10569636;28;20533;-73
2022/08/27 01:32:29;;;;;;;3.38;2.20;;;;;;;14.82;99.62;101484.31;10552399;28;20517;-73
2022/08/27 01:37:33;;;;;;;4.47;2.90;;;;;;;14.80;100.00;101491.25;10571800;28;20048;-75
2022/08/27 01:42:38;;;;;;;3.45;1.98;;;;;;;14.79;100.00;101479.38;10569605;28;20135;-73
2022/08/27 01:47:41;;;;;;;3.58;1.90;;;;;;;14.80;99.91;101469.13;10570918;28;20066;-73
2022/08/27 01:52:44;;;;;;;3.10;2.10;;;;;;;14.83;100.00;101471.31;10570505;28;20425;-73
2022/08/27 01:57:47;;;;;;;2.72;1.80;;;;;;;14.81;100.00;101471.63;10535072;28;20051;-73
2022/08/27 02:02:49;;;;;;;2.42;1.92;;;;;;;14.81;100.00;101462.50;10567751;28;20044;-73
2022/08/27 02:07:52;;;;;;;2.58;1.88;;;;;;;14.83;100.00;101463.03;10586934;28;20040;-73
2022/08/27 02:12:54;;;;;;;3.28;2.25;;;;;;;14.89;99.53;101467.38;10589809;28;20529;-73
2022/08/27 02:17:57;;;;;;;7.13;2.30;;;;;;;14.93;100.00;101463.78;10570376;28;20505;-73
2022/08/27 02:22:59;;;;;;;2.38;2.13;;;;;;;14.95;99.71;101469.00;10568379;28;20114;-73
2022/08/27 02:28:03;;;;;;;2.15;1.35;;;;;;;14.97;99.22;101466.78;10587022;28;20527;-75
2022/08/27 02:33:05;;;;;;;3.22;2.20;;;;;;;14.96;99.34;101465.97;10585250;28;20063;-76
2022/08/27 02:38:08;;;;;;;3.58;2.30;;;;;;;14.96;99.02;101467.91;10568307;28;20453;-76
2022/08/27 02:43:11;;;;;;;3.72;2.17;;;;;;;14.96;98.80;101463.19;10561582;28;20059;-75
2022/08/27 02:48:14;;;;;;;2.17;1.70;;;;;;;14.98;98.80;101465.66;10602937;28;20044;-73
2022/08/27 02:53:17;;;;;;;2.50;1.50;;;;;;;14.99;98.67;101464.53;10595246;28;20054;-73
2022/08/27 02:58:19;;;;;;;3.45;2.22;;;;;;;14.99;98.70;101459.84;10577822;28;20058;-73
2022/08/27 03:03:21;;;;;;;4.20;2.20;;;;;;;15.01;98.58;101459.53;10596589;28;20055;-73
2022/08/27 03:08:25;;;;;;;2.53;1.88;;;;;;;15.02;98.56;101456.50;10598757;28;20044;-73
2022/08/27 03:13:27;;;;;;;3.75;1.90;;;;;;;15.06;98.48;101459.50;10579246;28;20051;-75
2022/08/27 03:18:31;;;;;;;3.38;1.95;;;;;;;15.14;98.39;101453.34;10589011;28;20051;-73
2022/08/27 03:23:34;;;;;;;4.45;2.00;;;;;;;15.22;98.29;101447.16;10592554;28;20536;-73
2022/08/27 03:28:36;;;;;;;6.63;2.38;;;;;;;15.34;98.50;101446.78;10586251;28;20039;-74
2022/08/27 03:33:39;;;;;;;5.38;2.10;;;;;;;15.53;98.24;101442.13;10579975;28;20044;-73
2022/08/27 03:38:41;;;;;;;3.65;2.45;;;;;;;15.71;98.23;101448.03;10601028;28;20060;-75
2022/08/27 03:43:44;;;;;;;6.90;2.50;;;;;;;15.91;97.52;101450.53;10603316;28;20051;-73
2022/08/27 03:48:47;;;;;;;2.65;1.70;;;;;;;16.11;97.33;101443.88;10585590;28;20066;-75
2022/08/27 03:53:49;;;;;;;2.90;1.98;;;;;;;16.23;97.08;101456.16;10614031;28;20052;-75
2022/08/27 03:58:52;;;;;;;3.20;2.08;;;;;;;16.37;96.81;101444.34;10587616;28;20071;-73
2022/08/27 04:03:54;;;;;;;2.65;2.00;;;;;;;16.57;96.19;101436.53;10583495;28;20405;-73
2022/08/27 04:08:56;;;;;;;2.97;1.95;;;;;;;16.80;95.49;101436.72;10605388;28;20486;-73
2022/08/27 04:13:59;;;;;;;4.20;1.85;;;;;;;16.92;94.83;101445.41;10601410;28;20039;-73
2022/08/27 04:19:03;;;;;;;1.88;1.58;;;;;;;16.99;93.76;101442.22;10591225;28;20044;-76
2022/08/27 04:24:05;;;;;;;2.55;2.00;;;;;;;17.21;92.81;101424.91;10605199;28;20039;-75
2022/08/27 04:29:07;;;;;;;2.85;1.80;;;;;;;17.52;92.05;101431.50;10602495;28;20035;-74
2022/08/27 04:34:09;;;;;;;4.50;2.35;;;;;;;17.92;91.35;101437.38;10573025;27;20044;-73
2022/08/27 04:39:12;;;;;;;2.53;1.95;;;;;;;18.03;89.85;101427.66;10596011;28;20059;-74
2022/08/27 04:44:15;;;;;;;3.35;1.95;;;;;;;18.29;88.34;101419.56;10572495;28;20051;-73
2022/08/27 04:49:17;;;;;;;3.50;2.33;;;;;;;18.64;86.62;101412.34;10553838;28;20434;-73
2022/08/27 04:54:19;;;;;;;4.07;1.48;;;;;;;18.96;83.94;101406.50;10572474;28;20039;-76
2022/08/27 04:59:22;;;;;;;2.17;1.45;;;;;;;19.28;82.60;101415.66;10572726;28;20060;-73
2022/08/27 05:04:24;;;;;;;3.10;1.77;;;;;;;19.74;80.79;101408.78;10570610;28;20059;-73
2022/08/27 05:09:26;;;;;;;2.53;1.58;;;;;;;20.41;77.58;101413.94;10570199;28;20047;-73
2022/08/27 05:14:31;;;;;;;5.82;2.33;;;;;;;20.83;75.95;101414.25;10567921;28;20052;-73
2022/08/27 05:19:33;;;;;;;5.18;2.28;;;;;;;20.99;74.37;101420.91;10567964;28;20040;-73
2022/08/27 05:24:36;;;;;;;2.15;1.70;;;;;;;21.41;73.93;101421.94;10571741;28;20453;-73
2022/08/27 05:29:38;;;;;;;4.78;1.80;;;;;;;21.75;70.73;101414.53;10569278;28;20044;-73
2022/08/27 05:34:40;;;;;;;2.22;1.88;;;;;;;21.89;69.24;101409.53;10567169;28;20048;-73
2022/08/27 05:39:42;;;;;;;3.28;2.38;;;;;;;21.93;69.48;101411.28;10550003;28;20058;-74
2022/08/27 05:44:45;;;;;;;2.45;1.88;;;;;;;22.12;68.70;101404.47;10572027;28;20036;-73
2022/08/27 05:49:47;;;;;;;4.13;2.20;;;;;;;22.42;66.93;101406.00;10571281;28;20405;-74
2022/08/27 05:54:49;;;;;;;4.00;2.13;;;;;;;22.75;67.03;101408.81;10568654;28;20044;-74
2022/08/27 06:05:15;;;;;;;3.00;1.88;;;;;;;23.19;64.67;101405.56;10574687;28;20040;-74
2022/08/27 06:10:17;;;;;;;2.55;1.83;;;;;;;23.47;63.27;101395.31;10567970;28;20054;-74
2022/08/27 06:15:19;;;;;;;2.65;2.10;;;;;;;23.72;62.64;101402.56;10569602;28;20035;-74
2022/08/27 06:20:22;;;;;;;5.38;2.30;;;;;;;23.81;61.57;101408.03;10568206;28;20544;-74
2022/08/27 06:25:24;;;;;;;3.00;2.28;;;;;;;24.22;61.23;101397.66;10569118;28;20059;-74
2022/08/27 06:30:26;;;;;;;4.97;2.25;;;;;;;24.58;59.62;101407.97;10566322;28;20039;-74
2022/08/27 06:35:28;;;;;;;6.50;2.38;;;;;;;24.81;58.00;101403.38;10568153;28;20036;-74
2022/08/27 06:40:31;;;;;;;5.80;2.28;;;;;;;24.90;57.77;101406.03;10565740;28;20608;-74
2022/08/27 06:45:37;;;;;;;3.83;2.53;;;;;;;24.87;56.79;101401.97;10570062;28;20040;-75
2022/08/27 06:50:40;;;;;;;2.88;2.42;;;;;;;25.05;57.11;101407.28;10570771;28;20052;-75
2022/08/27 06:55:45;;;;;;;4.13;2.35;;;;;;;25.35;56.42;101411.28;10565930;28;20047;-74
2022/08/27 07:00:47;;;;;;;5.35;2.63;;;;;;;25.69;54.96;101400.50;10583694;28;20043;-74
2022/08/27 07:05:49;;;;;;;5.97;2.90;;;;;;;25.82;53.33;101399.16;10570865;28;20048;-75
2022/08/27 07:10:56;;;;;;;4.57;2.95;;;;;;;25.93;53.01;101403.06;10580368;28;20036;-75
2022/08/27 07:15:58;;;;;;;2.92;2.60;;;;;;;26.20;52.97;101398.41;10575815;28;20042;-74
2022/08/27 07:21:02;;;;;;;4.68;3.03;;;;;;;26.13;51.87;101392.63;10572442;28;20040;-75
2022/08/27 07:26:09;;;;;;;5.40;2.50;;;;;;;26.09;52.23;101392.56;10577748;28;20031;-74
2022/08/27 07:31:15;;;;;;;4.32;2.75;;;;;;;26.12;52.32;101391.00;10597028;28;20468;-75
2022/08/27 07:36:17;;;;;;;2.85;2.47;;;;;;;26.11;52.46;101390.19;10574822;28;20048;-75
2022/08/27 07:41:20;;;;;;;4.85;2.50;;;;;;;26.32;52.16;101383.38;10584404;28;20039;-74
2022/08/27 07:46:23;;;;;;;5.85;2.83;;;;;;;26.34;52.00;101384.63;10569647;28;20499;-75
2022/08/27 07:51:27;;;;;;;2.75;2.22;;;;;;;26.66;51.81;101387.31;10583988;28;20047;-74
2022/08/27 07:56:29;;;;;;;3.47;2.50;;;;;;;26.96;50.53;101387.50;10613567;28;20062;-75
2022/08/27 08:01:32;;;;;;;5.00;2.63;;;;;;;26.87;51.10;101378.47;10588157;28;20063;-75
2022/08/27 08:06:37;;;;;;;4.10;2.65;;;;;;;27.01;51.22;101379.56;10572853;28;20040;-74
2022/08/27 08:11:39;;;;;;;3.97;2.80;;;;;;;27.33;51.20;101374.47;10566783;28;20632;-73
2022/08/27 08:16:41;;;;;;;3.45;2.67;;;;;;;27.72;50.16;101365.03;10571232;28;20040;-73
2022/08/27 08:21:44;;;;;;;3.25;2.92;;;;;;;28.33;49.37;101355.41;10572748;28;20047;-71
2022/08/27 08:26:46;;;;;;;4.45;2.83;;;;;;;28.56;49.10;101355.25;10575662;28;20537;-71
2022/08/27 08:31:48;;;;;;;4.10;2.70;;;;;;;28.88;47.96;101359.25;10582594;28;20047;-71
2022/08/27 08:36:50;;;;;;;5.75;3.00;;;;;;;28.83;47.54;101359.59;10588780;28;20418;-72
2022/08/27 08:41:54;;;;;;;4.13;3.25;;;;;;;28.73;48.25;101355.44;10569496;28;20045;-72
2022/08/27 08:47:13;;;;;;;4.85;3.25;;;;;;;28.68;47.67;101349.34;10560156;28;20420;-74
2022/08/27 08:52:33;;;;;;;3.75;2.67;;;;;;;28.58;48.93;101350.03;10581141;28;20040;-73
2022/08/27 08:57:41;;;;;;;3.83;3.00;;;;;;;28.60;48.34;101344.78;10561013;28;20522;-73
2022/08/27 09:02:49;;;;;;;3.80;2.83;;;;;;;28.51;48.90;101339.47;10581076;28;20040;-72
2022/08/27 09:07:54;;;;;;;5.97;4.22;;;;;;;28.61;48.47;101352.88;10569477;28;20040;-72
2022/08/27 09:13:00;;;;;;;5.97;3.65;;;;;;;28.42;48.68;101344.59;10563947;28;20047;-71
2022/08/27 09:18:07;;;;;;;6.30;4.28;;;;;;;28.14;49.54;101347.88;10580772;28;20028;-74
2022/08/27 09:23:15;;;;;;;4.80;3.35;;;;;;;27.70;49.55;101340.03;10576057;28;20056;-74
2022/08/27 09:33:44;;;;;;;8.27;4.15;;;;;;;26.49;51.86;101334.31;10563472;28;20052;-74
2022/08/27 09:38:56;;;;;;;6.32;3.78;;;;;;;25.85;53.34;101340.19;10570591;28;20039;-72
2022/08/27 09:44:07;;;;;;;4.97;3.28;;;;;;;25.37;56.00;101340.66;10567970;28;20044;-72
2022/08/27 09:49:11;;;;;;;6.78;3.40;;;;;;;25.11;57.12;101338.41;10563793;28;20506;-71
2022/08/27 09:54:39;;;;;;;4.85;3.50;;;;;;;24.95;57.59;101344.00;10567094;28;20044;-76
2022/08/27 09:59:53;;;;;;;4.00;3.35;;;;;;;24.76;58.88;101335.47;10551520;28;20043;-75
2022/08/27 10:04:57;;;;;;;7.40;4.13;;;;;;;24.71;59.18;101335.75;10567852;28;20043;-77
2022/08/27 10:10:17;;;;;;;5.22;4.32;;;;;;;24.54;60.51;101336.91;10566664;28;20048;-78
2022/08/27 10:15:20;;;;;;;9.27;4.43;;;;;;;24.43;60.74;101330.16;10575197;28;20040;-73
2022/08/27 10:20:41;;;;;;;7.60;4.53;;;;;;;24.36;60.54;101333.59;10572554;28;20067;-72
2022/08/27 10:26:01;;;;;;;5.57;4.18;;;;;;;24.27;61.02;101336.50;10565287;28;20418;-75
2022/08/27 10:31:34;;;;;;;5.30;3.60;;;;;;;24.33;61.00;101325.91;10568784;28;20533;-75
2022/08/27 10:36:53;;;;;;;6.55;5.25;;;;;;;24.43;62.11;101328.19;10570022;28;20498;-77
2022/08/27 10:42:08;;;;;;;5.70;4.30;;;;;;;24.48;62.16;101327.13;10563754;28;20044;-76
2022/08/27 10:47:39;;;;;;;6.68;4.70;;;;;;;24.49;62.49;101312.72;10587028;28;20059;-78
2022/08/27 10:52:47;;;;;;;7.72;4.88;;;;;;;24.55;61.78;101313.28;10572497;28;20048;-77
2022/08/27 10:58:04;;;;;;;8.75;5.05;;;;;;;24.61;61.21;101320.25;10573402;28;20040;-75
2022/08/27 11:03:10;;;;;;;8.23;4.57;;;;;;;24.61;61.03;101320.25;10585203;28;20061;-73
2022/08/27 11:08:22;;;;;;;6.63;4.05;;;;;;;24.58;60.88;101326.59;10574090;28;20425;-74
2022/08/27 11:13:37;;;;;;;5.85;3.65;;;;;;;24.61;60.83;101312.63;10573853;28;20041;-75
2022/08/27 11:18:50;;;;;;;8.70;4.28;;;;;;;24.69;60.66;101316.47;10585826;28;20054;-75
2022/08/27 11:24:01;;;;;;;6.30;4.05;;;;;;;24.62;60.93;101305.84;10575217;28;20052;-77
2022/08/27 11:29:18;;;;;;;8.20;5.25;;;;;;;24.54;60.15;101308.84;10588580;28;20195;-77
2022/08/27 11:34:41;;;;;;;6.18;4.72;;;;;;;24.58;60.99;101304.13;10564610;28;20506;-78
2022/08/27 11:40:02;;;;;;;8.88;3.35;;;;;;;24.56;60.42;101296.06;10569643;28;20051;-75
2022/08/27 11:45:10;;;;;;;5.50;3.88;;;;;;;24.57;60.27;101302.50;10574918;28;20048;-76
2022/08/27 11:50:18;;;;;;;6.95;4.88;;;;;;;24.62;60.32;101293.81;10570810;28;20047;-77
2022/08/27 11:55:20;;;;;;;7.88;5.55;;;;;;;24.65;60.58;101293.13;10553821;28;20079;-78
2022/08/27 12:00:25;;;;;;;6.32;4.80;;;;;;;24.64;59.92;101291.47;10574117;28;20040;-76
2022/08/27 12:05:36;;;;;;;7.03;4.85;;;;;;;24.64;60.66;101281.06;10573642;28;20048;-77
2022/08/27 12:11:11;;;;;;;5.75;4.30;;;;;;;24.68;60.29;101289.59;10574717;28;20036;-78
2022/08/27 12:16:28;;;;;;;5.93;3.97;;;;;;;24.71;60.33;101277.63;10573817;28;20047;-81
2022/08/27 12:21:33;;;;;;;5.10;3.33;;;;;;;24.77;60.68;101276.16;10571749;28;20055;-78
2022/08/27 12:26:42;;;;;;;7.43;4.50;;;;;;;24.82;60.95;101275.06;10568735;28;20043;-79
2022/08/27 12:31:47;;;;;;;6.90;4.28;;;;;;;24.81;61.67;101270.63;10568657;28;20056;-79
2022/08/27 12:36:51;;;;;;;5.95;3.33;;;;;;;24.76;62.46;101260.50;10571331;28;20047;-79
2022/08/27 12:41:54;;;;;;;4.68;3.28;;;;;;;24.73;63.10;101272.47;10569018;28;20044;-79
2022/08/27 12:46:57;;;;;;;8.38;3.60;;;;;;;24.70;63.39;101258.34;10570844;28;20043;-79
2022/08/27 12:52:04;;;;;;;6.18;3.35;;;;;;;24.68;63.22;101257.91;10573802;28;20048;-85
2022/08/27 12:57:19;;;;;;;9.20;4.13;;;;;;;24.65;63.00;101260.25;10578895;28;20039;-77
2022/08/27 13:02:30;;;;;;;4.05;2.45;;;;;;;24.60;63.20;101260.50;10547536;28;20048;-77
2022/08/27 13:07:39;;;;;;;3.38;3.03;;;;;;;24.53;64.45;101256.69;10571418;28;20418;-77
2022/08/27 13:12:42;;;;;;;6.07;2.95;;;;;;;24.46;63.47;101256.50;10571858;28;20066;-77
2022/08/27 13:17:46;;;;;;;4.70;2.40;;;;;;;24.38;64.13;101255.50;10557905;28;20514;-78
2022/08/27 13:22:49;;;;;;;7.47;3.55;;;;;;;24.33;64.33;101256.59;10530469;28;20055;-77
2022/08/27 13:27:54;;;;;;;5.90;2.92;;;;;;;24.21;65.24;101239.78;10528334;28;20396;-77
2022/08/27 13:32:57;;;;;;;3.30;2.50;;;;;;;24.15;65.58;101244.06;10533074;28;20503;-77
2022/08/27 13:38:00;;;;;;;5.60;3.00;;;;;;;24.05;65.13;101247.34;10531370;28;20039;-77
2022/08/27 13:43:06;;;;;;;7.43;3.30;;;;;;;23.99;66.21;101241.19;10544554;28;20041;-77
2022/08/27 13:48:11;;;;;;;5.65;2.90;;;;;;;23.90;66.45;101239.72;10528475;28;20044;-77
2022/08/27 13:58:39;;;;;;;;;;;;;;;23.67;66.57;101245.88;10558354;28;20042;-78
2022/08/27 14:03:49;;;;;;;5.82;3.50;;;;;;;23.59;66.81;101232.81;10599759;28;20018;-78
2022/08/27 14:08:51;;;;;;;3.17;2.20;;;;;;;23.51;67.86;101252.56;10526450;28;20041;-77
2022/08/27 14:13:55;;;;;;;3.63;3.10;;;;;;;23.37;67.35;101241.72;10543709;28;20036;-77
2022/08/27 14:19:25;;;;;;;7.15;2.92;;;;;;;23.23;67.42;101238.47;10528466;28;20431;-78
2022/08/27 14:24:28;;;;;;;5.63;3.28;;;;;;;23.11;67.63;101237.34;10528352;28;20047;-78
2022/08/27 14:29:30;;;;;;;5.10;3.50;;;;;;;23.02;68.96;101230.22;10527612;28;20033;-77
2022/08/27 14:34:33;;;;;;;4.43;2.70;;;;;;;22.94;69.16;101231.19;10528115;28;20047;-78
2022/08/27 14:39:36;;;;;;;4.63;2.95;;;;;;;22.79;69.17;101219.47;10531372;28;20051;-78
2022/08/27 14:44:40;;;;;;;4.82;3.15;;;;;;;22.66;69.00;101225.41;10526841;28;20502;-78
2022/08/27 14:49:44;;;;;;;3.35;2.63;;;;;;;22.56;70.00;101221.94;10525631;28;20122;-78
2022/08/27 14:54:46;;;;;;;6.20;3.60;;;;;;;22.49;70.38;101210.47;10525852;28;20040;-78
2022/08/27 14:59:49;;;;;;;4.85;3.50;;;;;;;22.47;70.53;101212.00;10527229;28;20041;-76
2022/08/27 15:04:51;;;;;;;6.97;3.38;;;;;;;22.42;70.90;101206.63;10525494;28;20045;-77
2022/08/27 15:09:54;;;;;;;3.88;2.53;;;;;;;22.34;70.83;101191.59;10526233;28;20048;-76
2022/08/27 15:14:56;;;;;;;4.25;3.20;;;;;;;22.35;71.42;101187.63;10526600;28;20049;-76
2022/08/27 15:19:58;;;;;;;4.53;3.00;;;;;;;22.34;71.30;101191.59;10525717;28;20033;-76
2022/08/27 15:25:01;;;;;;;5.00;2.40;;;;;;;22.34;70.81;101180.41;10526460;28;20044;-77
2022/08/27 15:30:05;;;;;;;4.70;2.83;;;;;;;22.31;71.19;101175.50;10530621;28;20044;-76
2022/08/27 15:35:12;;;;;;;7.80;2.92;;;;;;;22.31;71.04;101169.91;10517125;28;20517;-76
2022/08/27 15:40:16;;;;;;;5.38;3.10;;;;;;;22.28;72.08;101167.81;10534048;28;20040;-76
2022/08/27 15:45:19;;;;;;;4.35;2.80;;;;;;;22.22;71.93;101172.00;10532529;28;20498;-76
2022/08/27 15:50:22;;;;;;;4.70;3.10;;;;;;;22.14;71.59;101164.53;10533387;28;20411;-76
2022/08/27 15:55:27;;;;;;;4.75;2.45;;;;;;;21.97;71.91;101157.94;10548988;28;20411;-76
2022/08/27 16:00:32;;;;;;;7.28;3.70;;;;;;;21.87;71.35;101165.97;10532961;28;20048;-76
2022/08/27 16:05:36;;;;;;;7.53;3.63;;;;;;;21.72;71.64;101153.47;10535123;28;20053;-76
2022/08/27 16:10:39;;;;;;;6.05;3.78;;;;;;;21.59;71.38;101151.78;10515555;28;20052;-76
2022/08/27 16:15:41;;;;;;;5.47;3.38;;;;;;;21.45;72.21;101149.25;10531200;28;20419;-76
2022/08/27 16:20:43;;;;;;;6.28;3.40;;;;;;;21.36;72.33;101151.34;10531664;28;20044;-77
2022/08/27 16:25:46;;;;;;;2.60;1.95;;;;;;;21.28;72.91;101150.22;10532216;28;20057;-76
2022/08/27 16:30:49;;;;;;;4.85;2.88;;;;;;;21.26;72.88;101151.72;10530815;28;20517;-76
2022/08/27 16:35:51;;;;;;;6.05;3.53;;;;;;;21.22;72.09;101143.19;10547712;28;20429;-76
2022/08/27 16:40:54;;;;;;;5.63;3.50;;;;;;;21.13;72.56;101148.03;10553929;28;20418;-77
2022/08/27 16:45:58;;;;;;;6.32;3.80;;;;;;;21.05;73.14;101160.06;10573424;28;20044;-76
2022/08/27 16:51:00;;;;;;;3.70;2.63;;;;;;;20.91;74.37;101151.16;10572390;28;20043;-76
2022/08/27 16:56:02;;;;;;;6.18;3.60;;;;;;;20.77;75.04;101145.81;10571411;28;20047;-77
2022/08/27 17:01:07;;;;;;;6.20;3.67;;;;;;;20.67;74.91;101158.19;10559180;28;20499;-77
2022/08/27 17:06:09;;;;;;;4.15;3.38;;;;;;;20.56;75.36;101151.34;10548474;28;20032;-77
2022/08/27 17:11:13;;;;;;;5.63;4.07;;;;;;;20.47;76.47;101154.16;10535988;28;20044;-77
2022/08/27 17:16:18;;;;;;;5.80;2.70;;;;;;;20.44;76.56;101157.63;10533347;28;20041;-77
2022/08/27 17:21:20;;;;;;;5.28;3.10;;;;;;;20.43;76.69;101160.75;10528699;28;20036;-77
2022/08/27 17:26:27;;;;;;;4.30;2.88;;;;;;;20.39;77.40;101160.59;10530264;28;20048;-77
2022/08/27 17:31:31;;;;;;;6.05;3.78;;;;;;;20.33;77.80;101163.91;10531676;28;20418;-77
2022/08/27 17:36:34;;;;;;;6.68;3.15;;;;;;;20.21;77.75;101156.22;10527602;28;20506;-77
2022/08/27 17:41:39;;;;;;;5.75;3.25;;;;;;;20.15;78.28;101169.53;10528160;28;20134;-77
2022/08/27 17:46:41;;;;;;;5.45;3.55;;;;;;;20.09;78.08;101170.03;10527403;28;20060;-77
2022/08/27 17:51:44;;;;;;;4.78;3.05;;;;;;;20.01;78.67;101174.50;10528429;28;20043;-77
2022/08/27 17:56:47;;;;;;;7.00;3.83;;;;;;;19.92;79.25;101175.66;10527340;28;20499;-77
2022/08/27 18:01:50;;;;;;;4.50;2.75;;;;;;;19.86;79.61;101184.19;10597698;28;20505;-77
2022/08/27 18:07:21;;;;;;;7.30;3.38;;;;;;;19.73;81.23;101179.63;10594719;28;20039;-77
2022/08/27 18:12:25;;;;;;;7.93;3.97;;;;;;;19.64;81.70;101180.78;10611462;28;20055;-77
2022/08/27 18:17:27;;;;;;;7.25;3.80;;;;;;;19.58;81.96;101180.13;10594117;28;20047;-77
2022/08/27 18:22:30;;;;;;;5.68;3.03;;;;;;;19.54;82.46;101176.34;10610921;28;20417;-77
2022/08/27 18:27:34;;;;;;;4.57;3.25;;;;;;;19.53;82.57;101180.25;10611977;28;20129;-77
2022/08/27 18:32:37;;;;;;;5.32;2.95;;;;;;;19.50;82.92;101181.75;10610600;28;20052;-77
2022/08/27 18:37:40;;;;;;;4.10;2.88;;;;;;;19.48;82.60;101183.22;10593712;28;20039;-77
2022/08/27 18:42:42;;;;;;;5.10;3.40;;;;;;;19.43;82.83;101183.38;10612456;28;20044;-77
2022/08/27 18:47:44;;;;;;;4.60;3.08;;;;;;;19.41;83.90;101186.47;10593481;28;20055;-77
2022/08/27 18:52:49;;;;;;;7.07;3.92;;;;;;;19.35;84.02;101179.44;10609996;28;20522;-77
2022/08/27 18:57:52;;;;;;;6.30;3.55;;;;;;;19.32;84.08;101182.88;10610076;28;20516;-77
2022/08/27 19:02:54;;;;;;;9.32;4.10;;;;;;;19.27;85.00;101180.28;10613172;28;20568;-77
2022/08/27 19:07:57;;;;;;;6.15;3.85;;;;;;;19.18;84.66;101171.91;10601652;28;20040;-77
2022/08/27 19:12:59;;;;;;;7.30;3.00;;;;;;;19.13;nan;101171.25;10612957;28;20036;-77
2022/08/27 19:18:02;;;;;;;5.78;3.92;;;;;;;19.09;85.84;101170.25;10536429;28;20044;-77
2022/08/27 19:23:04;;;;;;;8.13;4.88;;;;;;;19.06;86.25;101162.56;10533991;28;20044;-77
2022/08/27 19:28:07;;;;;;;6.63;4.97;;;;;;;19.01;86.97;101165.50;10536113;28;20525;-77
2022/08/27 19:33:09;;;;;;;7.22;4.15;;;;;;;18.97;87.31;101160.59;10533557;28;20036;-77
2022/08/27 19:38:12;;;;;;;6.10;3.20;;;;;;;19.08;87.68;101161.09;10533790;28;20441;-77
2022/08/27 19:43:14;;;;;;;10.18;5.13;;;;;;;19.08;87.70;101152.75;10533922;28;20422;-77
2022/08/27 19:48:17;;;;;;;6.45;4.57;;;;;;;19.09;88.08;101153.56;10533955;28;20048;-77
2022/08/27 19:53:19;;;;;;;6.60;3.55;;;;;;;19.06;88.37;101159.78;10532229;28;20036;-77
2022/08/27 19:58:21;;;;;;;4.32;3.42;;;;;;;19.02;88.27;101147.69;10533364;28;20036;-77
2022/08/27 20:03:23;;;;;;;10.85;3.72;;;;;;;19.00;88.54;101145.22;10534638;28;20410;-76
2022/08/27 20:08:26;;;;;;;5.93;4.75;;;;;;;18.99;88.89;101146.38;10532318;28;20098;-77
2022/08/27 20:13:28;;;;;;;4.75;3.88;;;;;;;18.98;88.87;101145.56;10532355;28;20044;-77
2022/08/27 20:18:31;;;;;;;10.88;5.38;;;;;;;18.97;89.08;101140.31;10531534;28;20044;-77
2022/08/27 20:23:33;;;;;;;6.88;4.60;;;;;;;18.96;89.48;101141.47;10532301;28;20044;-77
2022/08/27 20:28:35;;;;;;;5.78;4.45;;;;;;;18.93;89.56;101140.16;10531038;28;20044;-77
2022/08/27 20:33:38;;;;;;;7.15;5.00;;;;;;;18.94;89.27;101129.84;10531889;28;20056;-77
2022/08/27 20:38:40;;;;;;;7.72;5.00;;;;;;;18.96;89.44;101144.25;10531326;28;20052;-76
2022/08/27 20:43:42;;;;;;;8.07;5.13;;;;;;;18.91;89.77;101147.97;10531620;28;20050;-77
2022/08/27 20:48:44;;;;;;;7.63;4.45;;;;;;;18.89;89.52;101139.13;10531573;28;20063;-77
2022/08/27 20:53:47;;;;;;;8.90;4.85;;;;;;;18.90;89.82;101146.34;10530462;28;20051;-77
2022/08/27 21:04:10;;;;;;;8.02;5.18;;;;;;;18.96;89.76;101147.84;10530711;28;20040;-77
2022/08/27 21:09:12;;;;;;;6.85;4.38;;;;;;;19.00;89.99;101152.75;10529499;28;20036;-77
2022/08/27 21:14:14;;;;;;;10.05;4.63;;;;;;;19.01;90.07;101143.25;10534140;28;20035;-77
2022/08/27 21:19:16;;;;;;;10.10;5.78;;;;;;;18.99;90.01;101138.03;10530182;28;20051;-77
2022/08/27 21:24:19;;;;;;;8.15;4.93;;;;;;;19.01;90.13;101137.69;10529271;28;20040;-77
2022/08/27 21:29:21;;;;;;;7.53;4.82;;;;;;;19.04;89.27;101137.03;10542174;28;20049;-77
2022/08/27 21:34:23;;;;;;;7.22;5.10;;;;;;;19.06;89.77;101141.13;10582708;28;20047;-77
2022/08/27 21:39:26;;;;;;;7.88;6.07;;;;;;;19.05;89.51;101131.16;10587797;28;20043;-79
2022/08/27 21:44:29;;;;;;;8.82;5.70;;;;;;;19.01;89.73;101137.69;10587018;28;20051;-79
2022/08/27 21:49:31;;;;;;;11.85;5.13;;;;;;;19.04;89.43;101139.81;10565312;28;20840;-78
2022/08/27 21:54:38;;;;;;;8.02;5.68;;;;;;;19.01;89.92;101140.47;10565618;28;20035;-77
2022/08/27 21:59:43;;;;;;;8.20;5.63;;;;;;;19.01;89.15;101129.34;10558783;28;20036;-76
2022/08/27 22:04:46;;;;;;;9.60;5.38;;;;;;;19.06;89.54;101126.41;10581833;28;20891;-81
2022/08/27 22:09:48;;;;;;;8.90;5.72;;;;;;;19.05;89.90;101121.97;10581663;28;20047;-81
2022/08/27 22:14:50;;;;;;;10.18;5.88;;;;;;;19.04;89.71;101123.94;10562711;28;20040;-78
2022/08/27 22:19:52;;;;;;;11.75;5.90;;;;;;;19.05;89.32;101125.59;10569521;28;20502;-79
2022/08/27 22:24:54;;;;;;;9.25;5.82;;;;;;;19.03;89.01;101132.63;10552076;28;20043;-82
2022/08/27 22:29:57;;;;;;;12.30;6.13;;;;;;;19.05;89.68;101127.53;10533199;28;20041;-80
2022/08/27 22:34:59;;;;;;;10.73;6.30;;;;;;;19.06;89.70;101137.53;10567684;28;20044;-81
2022/08/27 22:40:02;;;;;;;9.07;5.97;;;;;;;19.09;89.71;101132.16;10565701;28;20043;-77
2022/08/27 22:45:05;;;;;;;11.85;7.13;;;;;;;19.14;89.27;101129.19;10547791;28;20043;-79
2022/08/27 22:50:08;;;;;;;7.63;5.90;;;;;;;19.16;89.18;101121.34;10568144;28;20494;-78
2022/08/27 22:55:12;;;;;;;9.45;5.63;;;;;;;19.15;89.20;101128.06;10569149;28;20040;-78
2022/08/27 23:00:22;;;;;;;11.85;6.35;;;;;;;19.19;89.12;101126.25;10566716;28;20032;-78
2022/08/27 23:05:24;;;;;;;8.73;5.55;;;;;;;19.20;89.28;101127.06;10567594;28;20067;-79
2022/08/27 23:10:27;;;;;;;8.23;5.60;;;;;;;19.22;89.05;101124.78;10550934;28;20486;-78
2022/08/27 23:15:29;;;;;;;10.52;6.45;;;;;;;19.23;88.32;101127.22;10566662;28;20513;-78
2022/08/27 23:20:31;;;;;;;7.55;5.55;;;;;;;19.24;88.72;101128.84;10568123;28;20055;-78
2022/08/27 23:30:55;;;;;;;9.32;6.03;;;;;;;19.24;88.20;101123.28;10567724;28;20542;-78
2022/08/27 23:35:57;;;;;;;11.30;6.35;;;;;;;19.26;87.96;101120.19;10565160;28;20028;-78
2022/08/27 23:40:59;;;;;;;9.43;6.53;;;;;;;19.16;88.44;101138.03;10543037;28;20047;-78
2022/08/27 23:46:01;;;;;;;11.52;6.55;;;;;;;19.12;88.33;101133.47;10566705;28;20490;-78